sensor_id;sensor_type;location;lat;lon;timestamp;P1;durP1;ratioP1;P2;durP2;ratioP2
60308;SDS011;50313;52.894;6.492;2023-08-30T00:02:00;12.95;;;6.22;;
60308;SDS011;50313;52.894;6.492;2023-08-30T00:04:26;9.95;;;5.35;;
60308;SDS011;50313;52.894;6.492;2023-08-30T00:06:52;10.70;;;5.97;;
60308;SDS011;50313;52.894;6.492;2023-08-30T00:09:18;9.05;;;6.45;;
60308;SDS011;50313;52.894;6.492;2023-08-30T00:11:44;10.70;;;5.30;;
60308;SDS011;50313;52.894;6.492;2023-08-30T00:14:09;12.32;;;5.40;;
60308;SDS011;50313;52.894;6.492;2023-08-30T00:16:35;8.73;;;4.88;;
60308;SDS011;50313;52.894;6.492;2023-08-30T00:19:03;8.20;;;4.63;;
60308;SDS011;50313;52.894;6.492;2023-08-30T00:21:29;10.88;;;6.18;;
60308;SDS011;50313;52.894;6.492;2023-08-30T00:23:55;13.07;;;6.60;;
60308;SDS011;50313;52.894;6.492;2023-08-30T00:26:21;13.00;;;5.45;;
60308;SDS011;50313;52.894;6.492;2023-08-30T00:28:47;6.07;;;4.93;;
60308;SDS011;50313;52.894;6.492;2023-08-30T00:31:13;8.43;;;4.75;;
60308;SDS011;50313;52.894;6.492;2023-08-30T00:33:39;8.43;;;5.18;;
60308;SDS011;50313;52.894;6.492;2023-08-30T00:36:05;11.15;;;6.10;;
60308;SDS011;50313;52.894;6.492;2023-08-30T00:38:32;9.60;;;5.03;;
60308;SDS011;50313;52.894;6.492;2023-08-30T00:40:59;10.23;;;5.00;;
60308;SDS011;50313;52.894;6.492;2023-08-30T00:43:25;8.63;;;4.68;;
60308;SDS011;50313;52.894;6.492;2023-08-30T00:45:50;8.73;;;5.20;;
60308;SDS011;50313;52.894;6.492;2023-08-30T00:48:17;7.15;;;3.85;;
60308;SDS011;50313;52.894;6.492;2023-08-30T00:50:44;8.20;;;4.95;;
60308;SDS011;50313;52.894;6.492;2023-08-30T00:53:11;8.75;;;4.35;;
60308;SDS011;50313;52.894;6.492;2023-08-30T00:55:37;7.60;;;4.50;;
60308;SDS011;50313;52.894;6.492;2023-08-30T00:58:04;10.60;;;5.50;;
60308;SDS011;50313;52.894;6.492;2023-08-30T01:00:30;7.38;;;4.55;;
60308;SDS011;50313;52.894;6.492;2023-08-30T01:02:57;7.63;;;4.40;;
60308;SDS011;50313;52.894;6.492;2023-08-30T01:05:23;7.50;;;4.07;;
60308;SDS011;50313;52.894;6.492;2023-08-30T01:07:50;5.65;;;3.80;;
60308;SDS011;50313;52.894;6.492;2023-08-30T01:10:17;6.32;;;3.85;;
60308;SDS011;50313;52.894;6.492;2023-08-30T01:12:47;13.68;;;5.38;;
60308;SDS011;50313;52.894;6.492;2023-08-30T01:17:43;9.90;;;5.05;;
60308;SDS011;50313;52.894;6.492;2023-08-30T01:20:10;7.20;;;4.07;;
60308;SDS011;50313;52.894;6.492;2023-08-30T01:28:06;11.48;;;4.72;;
60308;SDS011;50313;52.894;6.492;2023-08-30T01:30:34;6.88;;;4.38;;
60308;SDS011;50313;52.894;6.492;2023-08-30T01:33:02;5.35;;;3.63;;
60308;SDS011;50313;52.894;6.492;2023-08-30T01:35:30;11.30;;;4.75;;
60308;SDS011;50313;52.894;6.492;2023-08-30T01:37:58;7.63;;;3.58;;
60308;SDS011;50313;52.894;6.492;2023-08-30T01:40:27;6.55;;;4.55;;
60308;SDS011;50313;52.894;6.492;2023-08-30T01:42:55;9.80;;;4.63;;
60308;SDS011;50313;52.894;6.492;2023-08-30T01:45:23;7.45;;;4.15;;
60308;SDS011;50313;52.894;6.492;2023-08-30T01:47:50;8.05;;;4.88;;
60308;SDS011;50313;52.894;6.492;2023-08-30T01:50:18;9.23;;;4.18;;
60308;SDS011;50313;52.894;6.492;2023-08-30T01:52:45;6.38;;;4.30;;
60308;SDS011;50313;52.894;6.492;2023-08-30T01:55:13;7.47;;;4.80;;
60308;SDS011;50313;52.894;6.492;2023-08-30T01:57:40;7.55;;;3.90;;
60308;SDS011;50313;52.894;6.492;2023-08-30T02:00:06;7.03;;;3.78;;
60308;SDS011;50313;52.894;6.492;2023-08-30T02:02:32;8.10;;;4.55;;
60308;SDS011;50313;52.894;6.492;2023-08-30T02:04:58;5.35;;;3.67;;
60308;SDS011;50313;52.894;6.492;2023-08-30T02:07:27;8.77;;;5.10;;
60308;SDS011;50313;52.894;6.492;2023-08-30T02:10:12;7.68;;;4.15;;
60308;SDS011;50313;52.894;6.492;2023-08-30T02:13:01;4.32;;;3.60;;
60308;SDS011;50313;52.894;6.492;2023-08-30T02:15:29;6.13;;;4.47;;
60308;SDS011;50313;52.894;6.492;2023-08-30T02:17:57;5.22;;;3.72;;
60308;SDS011;50313;52.894;6.492;2023-08-30T02:20:23;4.40;;;3.47;;
60308;SDS011;50313;52.894;6.492;2023-08-30T02:22:49;8.60;;;4.63;;
60308;SDS011;50313;52.894;6.492;2023-08-30T02:25:15;9.50;;;5.50;;
60308;SDS011;50313;52.894;6.492;2023-08-30T02:27:41;9.27;;;4.13;;
60308;SDS011;50313;52.894;6.492;2023-08-30T02:30:07;6.25;;;3.38;;
60308;SDS011;50313;52.894;6.492;2023-08-30T02:32:34;6.65;;;4.13;;
60308;SDS011;50313;52.894;6.492;2023-08-30T02:35:00;7.60;;;5.38;;
60308;SDS011;50313;52.894;6.492;2023-08-30T02:37:27;5.28;;;3.63;;
60308;SDS011;50313;52.894;6.492;2023-08-30T02:39:53;7.60;;;4.38;;
60308;SDS011;50313;52.894;6.492;2023-08-30T02:42:19;6.28;;;4.40;;
60308;SDS011;50313;52.894;6.492;2023-08-30T02:44:44;6.93;;;4.53;;
60308;SDS011;50313;52.894;6.492;2023-08-30T02:47:10;10.40;;;4.20;;
60308;SDS011;50313;52.894;6.492;2023-08-30T02:49:36;8.02;;;4.75;;
60308;SDS011;50313;52.894;6.492;2023-08-30T02:52:02;14.57;;;4.93;;
60308;SDS011;50313;52.894;6.492;2023-08-30T02:54:28;7.40;;;4.07;;
60308;SDS011;50313;52.894;6.492;2023-08-30T02:56:54;6.85;;;3.95;;
60308;SDS011;50313;52.894;6.492;2023-08-30T02:59:20;7.25;;;3.65;;
60308;SDS011;50313;52.894;6.492;2023-08-30T03:01:46;15.57;;;4.47;;
60308;SDS011;50313;52.894;6.492;2023-08-30T03:04:12;6.93;;;3.63;;
60308;SDS011;50313;52.894;6.492;2023-08-30T03:06:38;6.30;;;4.32;;
60308;SDS011;50313;52.894;6.492;2023-08-30T03:09:04;11.15;;;3.30;;
60308;SDS011;50313;52.894;6.492;2023-08-30T03:11:31;5.05;;;4.03;;
60308;SDS011;50313;52.894;6.492;2023-08-30T03:13:57;4.90;;;3.53;;
60308;SDS011;50313;52.894;6.492;2023-08-30T03:16:23;8.45;;;5.45;;
60308;SDS011;50313;52.894;6.492;2023-08-30T03:18:49;7.57;;;4.47;;
60308;SDS011;50313;52.894;6.492;2023-08-30T03:21:15;16.48;;;3.78;;
60308;SDS011;50313;52.894;6.492;2023-08-30T03:23:41;8.30;;;3.92;;
60308;SDS011;50313;52.894;6.492;2023-08-30T03:26:11;5.63;;;3.35;;
60308;SDS011;50313;52.894;6.492;2023-08-30T03:28:38;6.68;;;3.58;;
60308;SDS011;50313;52.894;6.492;2023-08-30T03:31:11;4.75;;;3.45;;
60308;SDS011;50313;52.894;6.492;2023-08-30T03:33:38;6.65;;;4.03;;
60308;SDS011;50313;52.894;6.492;2023-08-30T03:36:07;9.82;;;4.38;;
60308;SDS011;50313;52.894;6.492;2023-08-30T03:38:34;5.38;;;3.58;;
60308;SDS011;50313;52.894;6.492;2023-08-30T03:41:00;5.88;;;3.92;;
60308;SDS011;50313;52.894;6.492;2023-08-30T03:43:26;8.00;;;4.85;;
60308;SDS011;50313;52.894;6.492;2023-08-30T03:45:52;7.50;;;3.90;;
60308;SDS011;50313;52.894;6.492;2023-08-30T03:48:18;8.02;;;4.28;;
60308;SDS011;50313;52.894;6.492;2023-08-30T03:50:44;14.18;;;4.30;;
60308;SDS011;50313;52.894;6.492;2023-08-30T03:53:09;7.38;;;4.60;;
60308;SDS011;50313;52.894;6.492;2023-08-30T03:55:35;6.75;;;4.25;;
60308;SDS011;50313;52.894;6.492;2023-08-30T03:58:01;9.00;;;4.93;;
60308;SDS011;50313;52.894;6.492;2023-08-30T04:00:28;9.57;;;4.65;;
60308;SDS011;50313;52.894;6.492;2023-08-30T04:02:54;6.50;;;2.85;;
60308;SDS011;50313;52.894;6.492;2023-08-30T04:05:20;5.38;;;3.75;;
60308;SDS011;50313;52.894;6.492;2023-08-30T04:07:46;9.00;;;4.15;;
60308;SDS011;50313;52.894;6.492;2023-08-30T04:10:12;4.93;;;3.65;;
60308;SDS011;50313;52.894;6.492;2023-08-30T04:12:38;7.55;;;4.15;;
60308;SDS011;50313;52.894;6.492;2023-08-30T04:15:04;10.80;;;5.05;;
60308;SDS011;50313;52.894;6.492;2023-08-30T04:17:30;6.35;;;3.75;;
60308;SDS011;50313;52.894;6.492;2023-08-30T04:19:56;6.57;;;3.70;;
60308;SDS011;50313;52.894;6.492;2023-08-30T04:22:22;10.52;;;4.20;;
60308;SDS011;50313;52.894;6.492;2023-08-30T04:24:48;5.93;;;4.28;;
60308;SDS011;50313;52.894;6.492;2023-08-30T04:27:14;7.60;;;4.55;;
60308;SDS011;50313;52.894;6.492;2023-08-30T04:29:40;9.02;;;4.90;;
60308;SDS011;50313;52.894;6.492;2023-08-30T04:32:10;6.95;;;3.75;;
60308;SDS011;50313;52.894;6.492;2023-08-30T04:34:36;7.45;;;4.20;;
60308;SDS011;50313;52.894;6.492;2023-08-30T04:37:02;8.10;;;3.95;;
60308;SDS011;50313;52.894;6.492;2023-08-30T04:39:28;8.77;;;3.13;;
60308;SDS011;50313;52.894;6.492;2023-08-30T04:41:54;8.43;;;4.35;;
60308;SDS011;50313;52.894;6.492;2023-08-30T04:44:21;5.55;;;3.10;;
60308;SDS011;50313;52.894;6.492;2023-08-30T04:46:50;8.20;;;4.53;;
60308;SDS011;50313;52.894;6.492;2023-08-30T04:49:17;9.00;;;3.95;;
60308;SDS011;50313;52.894;6.492;2023-08-30T04:51:43;10.93;;;5.38;;
60308;SDS011;50313;52.894;6.492;2023-08-30T04:54:09;9.57;;;5.63;;
60308;SDS011;50313;52.894;6.492;2023-08-30T04:56:35;8.48;;;4.50;;
60308;SDS011;50313;52.894;6.492;2023-08-30T04:59:01;10.50;;;3.08;;
60308;SDS011;50313;52.894;6.492;2023-08-30T05:01:31;6.05;;;3.90;;
60308;SDS011;50313;52.894;6.492;2023-08-30T05:03:58;11.23;;;3.95;;
60308;SDS011;50313;52.894;6.492;2023-08-30T05:06:24;8.20;;;4.88;;
60308;SDS011;50313;52.894;6.492;2023-08-30T05:08:50;9.52;;;4.43;;
60308;SDS011;50313;52.894;6.492;2023-08-30T05:11:16;5.63;;;4.00;;
60308;SDS011;50313;52.894;6.492;2023-08-30T05:13:42;5.28;;;3.67;;
60308;SDS011;50313;52.894;6.492;2023-08-30T05:16:07;9.45;;;4.22;;
60308;SDS011;50313;52.894;6.492;2023-08-30T05:18:33;5.38;;;3.55;;
60308;SDS011;50313;52.894;6.492;2023-08-30T05:20:59;5.72;;;3.90;;
60308;SDS011;50313;52.894;6.492;2023-08-30T05:23:28;6.93;;;4.70;;
60308;SDS011;50313;52.894;6.492;2023-08-30T05:25:54;7.28;;;4.32;;
60308;SDS011;50313;52.894;6.492;2023-08-30T05:28:20;7.68;;;4.32;;
60308;SDS011;50313;52.894;6.492;2023-08-30T05:30:46;14.13;;;5.10;;
60308;SDS011;50313;52.894;6.492;2023-08-30T05:33:12;8.55;;;4.38;;
60308;SDS011;50313;52.894;6.492;2023-08-30T05:35:38;7.55;;;4.13;;
60308;SDS011;50313;52.894;6.492;2023-08-30T05:38:03;11.07;;;4.28;;
60308;SDS011;50313;52.894;6.492;2023-08-30T05:40:29;9.95;;;4.63;;
60308;SDS011;50313;52.894;6.492;2023-08-30T05:42:55;9.38;;;3.50;;
60308;SDS011;50313;52.894;6.492;2023-08-30T05:45:21;7.15;;;3.95;;
60308;SDS011;50313;52.894;6.492;2023-08-30T05:47:47;8.25;;;4.13;;
60308;SDS011;50313;52.894;6.492;2023-08-30T05:50:13;7.57;;;4.35;;
60308;SDS011;50313;52.894;6.492;2023-08-30T05:52:39;7.90;;;3.70;;
60308;SDS011;50313;52.894;6.492;2023-08-30T05:55:09;7.20;;;4.90;;
60308;SDS011;50313;52.894;6.492;2023-08-30T05:57:35;8.32;;;4.05;;
60308;SDS011;50313;52.894;6.492;2023-08-30T06:00:02;6.18;;;3.88;;
60308;SDS011;50313;52.894;6.492;2023-08-30T06:02:30;10.50;;;4.75;;
60308;SDS011;50313;52.894;6.492;2023-08-30T06:04:56;10.30;;;4.43;;
60308;SDS011;50313;52.894;6.492;2023-08-30T06:07:21;6.15;;;3.72;;
60308;SDS011;50313;52.894;6.492;2023-08-30T06:09:48;16.58;;;5.18;;
60308;SDS011;50313;52.894;6.492;2023-08-30T06:12:14;7.35;;;4.50;;
60308;SDS011;50313;52.894;6.492;2023-08-30T06:14:40;8.38;;;4.78;;
60308;SDS011;50313;52.894;6.492;2023-08-30T06:17:07;10.63;;;4.72;;
60308;SDS011;50313;52.894;6.492;2023-08-30T06:19:33;6.97;;;3.22;;
60308;SDS011;50313;52.894;6.492;2023-08-30T06:21:59;9.20;;;4.40;;
60308;SDS011;50313;52.894;6.492;2023-08-30T06:24:24;10.27;;;4.28;;
60308;SDS011;50313;52.894;6.492;2023-08-30T06:26:50;9.48;;;4.53;;
60308;SDS011;50313;52.894;6.492;2023-08-30T06:29:16;8.55;;;4.15;;
60308;SDS011;50313;52.894;6.492;2023-08-30T06:31:42;10.18;;;4.55;;
60308;SDS011;50313;52.894;6.492;2023-08-30T06:34:10;15.43;;;5.68;;
60308;SDS011;50313;52.894;6.492;2023-08-30T06:36:36;10.07;;;4.55;;
60308;SDS011;50313;52.894;6.492;2023-08-30T06:39:02;8.80;;;4.20;;
60308;SDS011;50313;52.894;6.492;2023-08-30T06:41:27;11.70;;;5.53;;
60308;SDS011;50313;52.894;6.492;2023-08-30T06:43:53;11.82;;;4.75;;
60308;SDS011;50313;52.894;6.492;2023-08-30T06:46:19;8.23;;;4.40;;
60308;SDS011;50313;52.894;6.492;2023-08-30T06:48:45;8.85;;;4.28;;
60308;SDS011;50313;52.894;6.492;2023-08-30T06:51:11;9.90;;;4.60;;
60308;SDS011;50313;52.894;6.492;2023-08-30T06:53:37;8.80;;;4.65;;
60308;SDS011;50313;52.894;6.492;2023-08-30T06:56:03;11.73;;;4.97;;
60308;SDS011;50313;52.894;6.492;2023-08-30T06:58:29;11.55;;;5.00;;
60308;SDS011;50313;52.894;6.492;2023-08-30T07:00:56;9.65;;;5.07;;
60308;SDS011;50313;52.894;6.492;2023-08-30T07:03:23;8.18;;;4.35;;
60308;SDS011;50313;52.894;6.492;2023-08-30T07:05:52;12.18;;;4.45;;
60308;SDS011;50313;52.894;6.492;2023-08-30T07:08:18;8.57;;;4.72;;
60308;SDS011;50313;52.894;6.492;2023-08-30T07:10:44;11.73;;;4.82;;
60308;SDS011;50313;52.894;6.492;2023-08-30T07:13:10;8.48;;;4.57;;
60308;SDS011;50313;52.894;6.492;2023-08-30T07:15:38;8.43;;;4.53;;
60308;SDS011;50313;52.894;6.492;2023-08-30T07:18:04;12.38;;;4.70;;
60308;SDS011;50313;52.894;6.492;2023-08-30T07:20:31;12.20;;;3.95;;
60308;SDS011;50313;52.894;6.492;2023-08-30T07:22:57;7.97;;;3.85;;
60308;SDS011;50313;52.894;6.492;2023-08-30T07:25:23;7.93;;;4.22;;
60308;SDS011;50313;52.894;6.492;2023-08-30T07:27:49;7.78;;;4.00;;
60308;SDS011;50313;52.894;6.492;2023-08-30T07:30:16;12.43;;;5.03;;
60308;SDS011;50313;52.894;6.492;2023-08-30T07:32:42;10.60;;;4.78;;
60308;SDS011;50313;52.894;6.492;2023-08-30T07:35:08;6.82;;;3.83;;
60308;SDS011;50313;52.894;6.492;2023-08-30T07:37:35;11.57;;;4.65;;
60308;SDS011;50313;52.894;6.492;2023-08-30T07:40:01;11.45;;;5.07;;
60308;SDS011;50313;52.894;6.492;2023-08-30T07:42:29;10.77;;;5.07;;
60308;SDS011;50313;52.894;6.492;2023-08-30T07:44:55;11.98;;;5.65;;
60308;SDS011;50313;52.894;6.492;2023-08-30T07:47:21;13.02;;;4.97;;
60308;SDS011;50313;52.894;6.492;2023-08-30T07:49:47;9.00;;;3.85;;
60308;SDS011;50313;52.894;6.492;2023-08-30T07:52:13;9.52;;;4.75;;
60308;SDS011;50313;52.894;6.492;2023-08-30T07:54:39;9.95;;;4.97;;
60308;SDS011;50313;52.894;6.492;2023-08-30T07:57:06;7.40;;;4.05;;
60308;SDS011;50313;52.894;6.492;2023-08-30T07:59:36;9.60;;;4.88;;
60308;SDS011;50313;52.894;6.492;2023-08-30T08:02:03;9.50;;;4.88;;
60308;SDS011;50313;52.894;6.492;2023-08-30T08:04:31;9.57;;;4.68;;
60308;SDS011;50313;52.894;6.492;2023-08-30T08:06:57;10.02;;;4.13;;
60308;SDS011;50313;52.894;6.492;2023-08-30T08:09:23;12.13;;;5.35;;
60308;SDS011;50313;52.894;6.492;2023-08-30T08:11:49;9.52;;;5.07;;
60308;SDS011;50313;52.894;6.492;2023-08-30T08:14:15;10.93;;;5.32;;
60308;SDS011;50313;52.894;6.492;2023-08-30T08:16:41;11.35;;;5.10;;
60308;SDS011;50313;52.894;6.492;2023-08-30T08:19:07;9.80;;;4.18;;
60308;SDS011;50313;52.894;6.492;2023-08-30T08:21:33;11.88;;;4.93;;
60308;SDS011;50313;52.894;6.492;2023-08-30T08:23:59;11.82;;;5.40;;
60308;SDS011;50313;52.894;6.492;2023-08-30T08:26:26;11.73;;;4.88;;
60308;SDS011;50313;52.894;6.492;2023-08-30T08:28:53;11.43;;;5.53;;
60308;SDS011;50313;52.894;6.492;2023-08-30T08:31:20;11.48;;;5.15;;
60308;SDS011;50313;52.894;6.492;2023-08-30T08:33:49;8.15;;;4.30;;
60308;SDS011;50313;52.894;6.492;2023-08-30T08:36:35;9.93;;;4.75;;
60308;SDS011;50313;52.894;6.492;2023-08-30T08:39:02;8.82;;;4.47;;
60308;SDS011;50313;52.894;6.492;2023-08-30T08:41:31;11.82;;;4.35;;
60308;SDS011;50313;52.894;6.492;2023-08-30T08:44:09;10.60;;;5.43;;
60308;SDS011;50313;52.894;6.492;2023-08-30T08:46:36;10.38;;;5.07;;
60308;SDS011;50313;52.894;6.492;2023-08-30T08:49:16;9.60;;;5.05;;
60308;SDS011;50313;52.894;6.492;2023-08-30T08:51:43;8.13;;;4.30;;
60308;SDS011;50313;52.894;6.492;2023-08-30T08:54:10;14.32;;;5.53;;
60308;SDS011;50313;52.894;6.492;2023-08-30T08:56:37;10.60;;;4.70;;
60308;SDS011;50313;52.894;6.492;2023-08-30T08:59:04;11.23;;;5.22;;
60308;SDS011;50313;52.894;6.492;2023-08-30T09:01:33;9.43;;;4.85;;
60308;SDS011;50313;52.894;6.492;2023-08-30T09:04:06;11.27;;;4.85;;
60308;SDS011;50313;52.894;6.492;2023-08-30T09:06:33;8.82;;;4.57;;
60308;SDS011;50313;52.894;6.492;2023-08-30T09:09:01;11.63;;;4.28;;
60308;SDS011;50313;52.894;6.492;2023-08-30T09:11:29;10.70;;;4.18;;
60308;SDS011;50313;52.894;6.492;2023-08-30T09:13:55;9.95;;;5.00;;
60308;SDS011;50313;52.894;6.492;2023-08-30T09:16:21;9.50;;;3.97;;
60308;SDS011;50313;52.894;6.492;2023-08-30T09:19:02;5.25;;;3.40;;
60308;SDS011;50313;52.894;6.492;2023-08-30T09:21:29;10.52;;;3.97;;
60308;SDS011;50313;52.894;6.492;2023-08-30T09:26:28;8.30;;;4.53;;
60308;SDS011;50313;52.894;6.492;2023-08-30T09:29:00;11.73;;;3.75;;
60308;SDS011;50313;52.894;6.492;2023-08-30T09:31:35;9.25;;;5.40;;
60308;SDS011;50313;52.894;6.492;2023-08-30T09:34:03;9.30;;;4.07;;
60308;SDS011;50313;52.894;6.492;2023-08-30T09:36:39;10.98;;;4.70;;
60308;SDS011;50313;52.894;6.492;2023-08-30T09:39:12;10.43;;;4.75;;
60308;SDS011;50313;52.894;6.492;2023-08-30T09:41:46;12.75;;;4.50;;
60308;SDS011;50313;52.894;6.492;2023-08-30T09:44:18;8.88;;;4.25;;
60308;SDS011;50313;52.894;6.492;2023-08-30T09:46:53;10.48;;;4.72;;
60308;SDS011;50313;52.894;6.492;2023-08-30T09:49:21;7.75;;;4.07;;
60308;SDS011;50313;52.894;6.492;2023-08-30T09:51:48;13.32;;;4.93;;
60308;SDS011;50313;52.894;6.492;2023-08-30T09:54:26;9.07;;;3.67;;
60308;SDS011;50313;52.894;6.492;2023-08-30T09:56:54;13.85;;;5.00;;
60308;SDS011;50313;52.894;6.492;2023-08-30T09:59:22;8.77;;;4.60;;
60308;SDS011;50313;52.894;6.492;2023-08-30T10:01:49;9.57;;;4.18;;
60308;SDS011;50313;52.894;6.492;2023-08-30T10:04:18;8.95;;;3.72;;
60308;SDS011;50313;52.894;6.492;2023-08-30T10:06:45;11.68;;;4.20;;
60308;SDS011;50313;52.894;6.492;2023-08-30T10:09:11;10.02;;;4.57;;
60308;SDS011;50313;52.894;6.492;2023-08-30T10:11:38;8.18;;;3.42;;
60308;SDS011;50313;52.894;6.492;2023-08-30T10:14:04;7.18;;;3.78;;
60308;SDS011;50313;52.894;6.492;2023-08-30T10:16:34;6.70;;;3.58;;
60308;SDS011;50313;52.894;6.492;2023-08-30T10:19:10;5.65;;;2.92;;
60308;SDS011;50313;52.894;6.492;2023-08-30T10:21:48;12.13;;;3.67;;
60308;SDS011;50313;52.894;6.492;2023-08-30T10:24:28;7.95;;;3.40;;
60308;SDS011;50313;52.894;6.492;2023-08-30T10:27:02;9.52;;;4.00;;
60308;SDS011;50313;52.894;6.492;2023-08-30T10:29:30;6.75;;;4.32;;
60308;SDS011;50313;52.894;6.492;2023-08-30T10:32:05;10.60;;;4.57;;
60308;SDS011;50313;52.894;6.492;2023-08-30T10:34:32;6.60;;;3.58;;
60308;SDS011;50313;52.894;6.492;2023-08-30T10:37:00;6.63;;;2.78;;
60308;SDS011;50313;52.894;6.492;2023-08-30T10:39:34;10.88;;;3.20;;
60308;SDS011;50313;52.894;6.492;2023-08-30T10:42:06;6.40;;;3.65;;
60308;SDS011;50313;52.894;6.492;2023-08-30T10:44:49;6.18;;;3.08;;
60308;SDS011;50313;52.894;6.492;2023-08-30T10:47:20;6.85;;;2.92;;
60308;SDS011;50313;52.894;6.492;2023-08-30T10:49:49;10.32;;;4.10;;
60308;SDS011;50313;52.894;6.492;2023-08-30T10:52:15;5.22;;;2.75;;
60308;SDS011;50313;52.894;6.492;2023-08-30T10:54:40;11.15;;;3.97;;
60308;SDS011;50313;52.894;6.492;2023-08-30T10:57:15;6.72;;;3.97;;
60308;SDS011;50313;52.894;6.492;2023-08-30T11:02:33;8.43;;;3.10;;
60308;SDS011;50313;52.894;6.492;2023-08-30T11:05:01;5.57;;;3.35;;
60308;SDS011;50313;52.894;6.492;2023-08-30T11:07:30;5.35;;;3.05;;
60308;SDS011;50313;52.894;6.492;2023-08-30T11:09:57;6.80;;;3.67;;
60308;SDS011;50313;52.894;6.492;2023-08-30T11:12:23;9.23;;;3.95;;
60308;SDS011;50313;52.894;6.492;2023-08-30T11:14:55;6.35;;;3.95;;
60308;SDS011;50313;52.894;6.492;2023-08-30T11:17:21;7.82;;;3.70;;
60308;SDS011;50313;52.894;6.492;2023-08-30T11:19:50;6.32;;;4.18;;
60308;SDS011;50313;52.894;6.492;2023-08-30T11:22:23;6.90;;;3.50;;
60308;SDS011;50313;52.894;6.492;2023-08-30T11:24:50;6.93;;;3.15;;
60308;SDS011;50313;52.894;6.492;2023-08-30T11:27:17;6.15;;;3.63;;
60308;SDS011;50313;52.894;6.492;2023-08-30T11:29:43;6.35;;;3.17;;
60308;SDS011;50313;52.894;6.492;2023-08-30T11:32:09;4.38;;;2.88;;
60308;SDS011;50313;52.894;6.492;2023-08-30T11:34:35;5.22;;;2.88;;
60308;SDS011;50313;52.894;6.492;2023-08-30T11:37:01;6.20;;;3.38;;
60308;SDS011;50313;52.894;6.492;2023-08-30T11:39:27;9.07;;;3.53;;
60308;SDS011;50313;52.894;6.492;2023-08-30T11:41:54;5.85;;;3.60;;
60308;SDS011;50313;52.894;6.492;2023-08-30T11:44:22;6.82;;;3.45;;
60308;SDS011;50313;52.894;6.492;2023-08-30T11:46:56;7.85;;;4.55;;
60308;SDS011;50313;52.894;6.492;2023-08-30T11:49:26;7.05;;;4.32;;
60308;SDS011;50313;52.894;6.492;2023-08-30T11:51:53;7.60;;;3.58;;
60308;SDS011;50313;52.894;6.492;2023-08-30T11:54:22;5.45;;;3.72;;
60308;SDS011;50313;52.894;6.492;2023-08-30T11:56:49;5.50;;;3.20;;
60308;SDS011;50313;52.894;6.492;2023-08-30T11:59:19;6.72;;;4.32;;
60308;SDS011;50313;52.894;6.492;2023-08-30T12:01:47;8.70;;;3.80;;
60308;SDS011;50313;52.894;6.492;2023-08-30T12:04:14;9.25;;;3.45;;
60308;SDS011;50313;52.894;6.492;2023-08-30T12:06:40;8.68;;;3.78;;
60308;SDS011;50313;52.894;6.492;2023-08-30T12:09:11;8.13;;;4.15;;
60308;SDS011;50313;52.894;6.492;2023-08-30T12:11:38;5.63;;;3.63;;
60308;SDS011;50313;52.894;6.492;2023-08-30T12:14:04;8.23;;;3.13;;
60308;SDS011;50313;52.894;6.492;2023-08-30T12:16:30;5.05;;;3.00;;
60308;SDS011;50313;52.894;6.492;2023-08-30T12:18:56;5.18;;;3.55;;
60308;SDS011;50313;52.894;6.492;2023-08-30T12:21:40;5.38;;;3.30;;
60308;SDS011;50313;52.894;6.492;2023-08-30T12:24:09;8.55;;;3.08;;
60308;SDS011;50313;52.894;6.492;2023-08-30T12:26:36;6.20;;;2.72;;
60308;SDS011;50313;52.894;6.492;2023-08-30T12:29:04;3.45;;;2.30;;
60308;SDS011;50313;52.894;6.492;2023-08-30T12:31:34;5.80;;;3.30;;
60308;SDS011;50313;52.894;6.492;2023-08-30T12:34:00;5.15;;;2.90;;
60308;SDS011;50313;52.894;6.492;2023-08-30T12:36:25;4.43;;;2.70;;
60308;SDS011;50313;52.894;6.492;2023-08-30T12:38:51;5.68;;;3.22;;
60308;SDS011;50313;52.894;6.492;2023-08-30T12:41:17;3.72;;;2.45;;
60308;SDS011;50313;52.894;6.492;2023-08-30T12:43:45;6.05;;;3.13;;
60308;SDS011;50313;52.894;6.492;2023-08-30T12:46:11;3.20;;;2.47;;
60308;SDS011;50313;52.894;6.492;2023-08-30T12:48:37;4.28;;;2.55;;
60308;SDS011;50313;52.894;6.492;2023-08-30T12:51:03;4.43;;;3.03;;
60308;SDS011;50313;52.894;6.492;2023-08-30T12:53:28;4.07;;;2.47;;
60308;SDS011;50313;52.894;6.492;2023-08-30T12:55:54;5.07;;;2.53;;
60308;SDS011;50313;52.894;6.492;2023-08-30T12:58:20;3.13;;;2.13;;
60308;SDS011;50313;52.894;6.492;2023-08-30T13:00:46;4.07;;;2.67;;
60308;SDS011;50313;52.894;6.492;2023-08-30T13:03:12;4.30;;;2.00;;
60308;SDS011;50313;52.894;6.492;2023-08-30T13:05:38;3.70;;;2.55;;
60308;SDS011;50313;52.894;6.492;2023-08-30T13:08:04;3.20;;;2.00;;
60308;SDS011;50313;52.894;6.492;2023-08-30T13:10:30;2.38;;;1.58;;
60308;SDS011;50313;52.894;6.492;2023-08-30T13:12:57;4.18;;;2.53;;
60308;SDS011;50313;52.894;6.492;2023-08-30T13:15:23;2.17;;;1.75;;
60308;SDS011;50313;52.894;6.492;2023-08-30T13:17:49;3.22;;;2.15;;
60308;SDS011;50313;52.894;6.492;2023-08-30T13:20:16;3.05;;;1.95;;
60308;SDS011;50313;52.894;6.492;2023-08-30T13:22:42;3.35;;;2.17;;
60308;SDS011;50313;52.894;6.492;2023-08-30T13:25:08;4.25;;;1.77;;
60308;SDS011;50313;52.894;6.492;2023-08-30T13:27:34;1.67;;;1.58;;
60308;SDS011;50313;52.894;6.492;2023-08-30T13:30:00;4.15;;;1.98;;
60308;SDS011;50313;52.894;6.492;2023-08-30T13:32:25;2.33;;;1.58;;
60308;SDS011;50313;52.894;6.492;2023-08-30T13:34:52;4.32;;;1.98;;
60308;SDS011;50313;52.894;6.492;2023-08-30T13:37:18;5.88;;;2.00;;
60308;SDS011;50313;52.894;6.492;2023-08-30T13:39:44;2.95;;;2.20;;
60308;SDS011;50313;52.894;6.492;2023-08-30T13:42:11;5.20;;;2.65;;
60308;SDS011;50313;52.894;6.492;2023-08-30T13:44:37;4.55;;;1.83;;
60308;SDS011;50313;52.894;6.492;2023-08-30T13:47:06;4.70;;;2.55;;
60308;SDS011;50313;52.894;6.492;2023-08-30T13:49:32;3.50;;;1.77;;
60308;SDS011;50313;52.894;6.492;2023-08-30T13:51:58;2.72;;;1.50;;
60308;SDS011;50313;52.894;6.492;2023-08-30T13:54:24;3.00;;;2.00;;
60308;SDS011;50313;52.894;6.492;2023-08-30T13:56:51;3.22;;;2.10;;
60308;SDS011;50313;52.894;6.492;2023-08-30T13:59:17;2.08;;;1.40;;
60308;SDS011;50313;52.894;6.492;2023-08-30T14:01:42;4.13;;;1.67;;
60308;SDS011;50313;52.894;6.492;2023-08-30T14:04:08;2.88;;;1.60;;
60308;SDS011;50313;52.894;6.492;2023-08-30T14:06:34;6.88;;;1.00;;
60308;SDS011;50313;52.894;6.492;2023-08-30T14:09:01;3.63;;;1.88;;
60308;SDS011;50313;52.894;6.492;2023-08-30T14:11:27;2.20;;;1.55;;
60308;SDS011;50313;52.894;6.492;2023-08-30T14:13:53;1.95;;;1.50;;
60308;SDS011;50313;52.894;6.492;2023-08-30T14:16:18;2.10;;;1.27;;
60308;SDS011;50313;52.894;6.492;2023-08-30T14:18:44;1.77;;;1.15;;
60308;SDS011;50313;52.894;6.492;2023-08-30T14:21:10;12.07;;;5.20;;
60308;SDS011;50313;52.894;6.492;2023-08-30T14:23:36;2.60;;;1.63;;
60308;SDS011;50313;52.894;6.492;2023-08-30T14:26:03;1.95;;;1.15;;
60308;SDS011;50313;52.894;6.492;2023-08-30T14:28:38;2.15;;;1.30;;
60308;SDS011;50313;52.894;6.492;2023-08-30T14:31:07;2.65;;;1.02;;
60308;SDS011;50313;52.894;6.492;2023-08-30T14:33:34;1.25;;;0.93;;
60308;SDS011;50313;52.894;6.492;2023-08-30T14:36:00;1.00;;;0.80;;
60308;SDS011;50313;52.894;6.492;2023-08-30T14:38:29;0.90;;;0.50;;
60308;SDS011;50313;52.894;6.492;2023-08-30T14:43:21;1.20;;;0.68;;
60308;SDS011;50313;52.894;6.492;2023-08-30T14:45:47;1.20;;;0.80;;
60308;SDS011;50313;52.894;6.492;2023-08-30T14:48:13;3.80;;;1.15;;
60308;SDS011;50313;52.894;6.492;2023-08-30T14:50:39;1.00;;;0.80;;
60308;SDS011;50313;52.894;6.492;2023-08-30T14:53:05;3.67;;;1.17;;
60308;SDS011;50313;52.894;6.492;2023-08-30T14:55:31;1.90;;;1.10;;
60308;SDS011;50313;52.894;6.492;2023-08-30T14:57:57;1.13;;;0.85;;
60308;SDS011;50313;52.894;6.492;2023-08-30T15:00:23;1.63;;;1.02;;
60308;SDS011;50313;52.894;6.492;2023-08-30T15:02:49;1.70;;;1.13;;